Time;durP1;ratioP1;P1;durP2;ratioP2;P2;SDS_P1;SDS_P2;PMS_P1;PMS_P2;Temp;Humidity;BMP_temperature;BMP_pressure;BME280_temperature;BME280_humidity;BME280_pressure;Samples;Min_cycle;Max_cycle;Signal;HPM_P1;HPM_P2
2022/06/21 00:01:13;;;;;;;;;;;16.90;76.40;;;;;;5032224;28;20037;-87
2022/06/21 00:03:39;;;;;;;1.88;0.80;;;17.00;77.00;;;;;;5050231;28;19912;-87
2022/06/21 00:06:05;;;;;;;1.15;0.70;;;16.90;76.80;;;;;;5032736;28;20030;-88
2022/06/21 00:08:34;;;;;;;1.25;0.70;;;16.80;77.00;;;;;;5040008;28;20026;-87
2022/06/21 00:11:01;;;;;;;1.75;0.88;;;16.70;77.50;;;;;;5018477;28;20040;-89
2022/06/21 00:13:30;;;;;;;1.40;0.80;;;16.70;77.90;;;;;;5018711;28;20052;-89
2022/06/21 00:16:03;;;;;;;1.10;0.70;;;16.80;77.70;;;;;;5018068;28;20045;-90
2022/06/21 00:18:31;;;;;;;3.63;0.90;;;16.80;77.90;;;;;;5036365;28;20026;-89
2022/06/21 00:20:57;;;;;;;2.70;0.80;;;16.80;78.20;;;;;;5035626;28;20029;-89
2022/06/21 00:23:26;;;;;;;7.03;0.70;;;16.80;78.20;;;;;;5018552;28;20374;-90
2022/06/21 00:25:53;;;;;;;1.45;0.60;;;16.70;78.50;;;;;;5001530;28;20113;-89
2022/06/21 00:28:20;;;;;;;0.75;0.43;;;16.70;78.70;;;;;;5016048;28;20034;-89
2022/06/21 00:30:47;;;;;;;1.08;0.55;;;16.70;78.70;;;;;;4998906;28;20459;-89
2022/06/21 00:33:17;;;;;;;0.70;0.63;;;16.70;79.20;;;;;;4998090;28;20037;-89
2022/06/21 00:35:46;;;;;;;1.23;0.82;;;16.70;79.60;;;;;;4998704;28;20030;-89
2022/06/21 00:38:23;;;;;;;1.33;0.60;;;16.60;79.30;;;;;;4998258;28;20133;-86
2022/06/21 00:40:48;;;;;;;1.90;0.95;;;16.70;79.70;;;;;;4998209;28;20033;-85
2022/06/21 00:43:22;;;;;;;2.35;0.88;;;16.60;79.70;;;;;;4998145;28;20033;-84
2022/06/21 00:45:50;;;;;;;1.75;0.60;;;16.60;80.30;;;;;;5019878;28;20026;-85
2022/06/21 00:48:28;;;;;;;1.70;0.75;;;16.60;80.30;;;;;;5021047;28;20076;-87
2022/06/21 00:51:04;;;;;;;2.45;0.93;;;16.50;80.70;;;;;;4997336;28;20034;-86
2022/06/21 00:53:36;;;;;;;1.38;0.90;;;16.60;80.80;;;;;;4997988;28;20482;-87
2022/06/21 00:56:11;;;;;;;1.92;0.80;;;16.60;80.70;;;;;;4997799;28;20034;-87
2022/06/21 00:58:36;;;;;;;4.72;0.73;;;16.70;80.80;;;;;;4997821;28;20129;-87
2022/06/21 01:01:23;;;;;;;1.42;0.50;;;16.70;80.20;;;;;;5014213;28;20117;-87
2022/06/21 01:03:57;;;;;;;2.78;0.68;;;16.70;80.10;;;;;;4997215;28;20029;-86
2022/06/21 01:06:31;;;;;;;1.10;0.65;;;16.70;80.70;;;;;;4997779;28;20026;-88
2022/06/21 01:09:11;;;;;;;1.40;0.80;;;16.60;80.80;;;;;;5014494;28;20036;-88
2022/06/21 01:11:46;;;;;;;0.90;0.55;;;16.50;81.10;;;;;;4997698;28;20041;-88
2022/06/21 01:14:14;;;;;;;1.27;0.75;;;16.50;81.20;;;;;;4996621;28;20111;-88
2022/06/21 01:16:41;;;;;;;0.77;0.57;;;16.40;81.30;;;;;;5010177;28;20050;-88
2022/06/21 01:19:25;;;;;;;1.27;0.60;;;16.40;81.60;;;;;;5033634;28;20077;-88
2022/06/21 01:21:55;;;;;;;1.70;0.70;;;16.30;82.00;;;;;;5016265;28;20092;-86
2022/06/21 01:24:40;;;;;;;0.73;0.60;;;16.30;82.10;;;;;;5034321;28;20032;-88
2022/06/21 01:27:05;;;;;;;3.17;0.60;;;16.20;82.20;;;;;;5033441;28;20029;-88
2022/06/21 01:29:35;;;;;;;1.98;0.80;;;16.10;82.50;;;;;;5034689;28;20035;-88
2022/06/21 01:32:05;;;;;;;1.55;0.70;;;16.10;82.80;;;;;;5016706;28;20037;-88
2022/06/21 01:34:31;;;;;;;0.80;0.73;;;16.10;83.20;;;;;;5017100;28;20045;-86
2022/06/21 01:37:11;;;;;;;1.40;0.60;;;16.10;82.90;;;;;;5016492;28;20463;-88
2022/06/21 01:39:48;;;;;;;0.93;0.75;;;16.00;83.00;;;;;;5017012;28;20036;-88
2022/06/21 01:42:19;;;;;;;1.95;0.60;;;16.10;82.70;;;;;;5017059;28;20021;-87
2022/06/21 01:44:50;;;;;;;0.83;0.50;;;16.00;83.20;;;;;;5018058;28;20034;-88
2022/06/21 01:47:21;;;;;;;0.73;0.60;;;16.00;83.70;;;;;;5018439;28;20274;-87
2022/06/21 01:49:54;;;;;;;1.27;0.60;;;15.90;84.00;;;;;;5016988;28;20041;-85
2022/06/21 01:52:24;;;;;;;2.83;0.80;;;15.80;84.10;;;;;;5016771;28;20025;-87
2022/06/21 01:54:58;;;;;;;1.20;0.60;;;15.80;84.40;;;;;;5016496;28;20083;-85
2022/06/21 01:57:24;;;;;;;0.82;0.57;;;15.80;84.70;;;;;;5016663;28;20042;-85
2022/06/21 01:59:51;;;;;;;1.50;0.57;;;15.80;84.80;;;;;;5033807;28;20113;-86
2022/06/21 02:02:28;;;;;;;1.58;0.80;;;15.80;84.80;;;;;;5034150;28;20105;-85
2022/06/21 02:04:56;;;;;;;1.10;0.70;;;15.90;84.70;;;;;;5033846;28;20051;-85
2022/06/21 02:07:27;;;;;;;0.70;0.60;;;15.80;84.20;;;;;;5034190;28;20113;-85
2022/06/21 02:10:05;;;;;;;0.70;0.55;;;15.80;84.10;;;;;;5016377;28;20476;-85
2022/06/21 02:12:32;;;;;;;0.80;0.60;;;15.80;84.50;;;;;;5034113;28;20040;-85
2022/06/21 02:15:01;;;;;;;1.63;0.75;;;15.80;84.80;;;;;;5015657;28;20113;-85
2022/06/21 02:17:32;;;;;;;1.73;0.80;;;15.80;84.70;;;;;;5016495;28;20041;-87
2022/06/21 02:20:05;;;;;;;0.77;0.60;;;15.80;84.90;;;;;;5015950;28;20029;-86
2022/06/21 02:22:32;;;;;;;1.13;0.75;;;15.80;84.80;;;;;;5016489;28;20025;-87
2022/06/21 02:24:58;;;;;;;2.63;0.82;;;15.80;84.70;;;;;;5015799;28;20057;-86
2022/06/21 02:27:28;;;;;;;2.80;0.80;;;15.80;84.90;;;;;;5016142;28;20034;-87
2022/06/21 02:29:57;;;;;;;4.50;1.10;;;15.80;84.90;;;;;;5015445;28;20512;-86
2022/06/21 02:32:35;;;;;;;1.50;0.70;;;15.70;85.20;;;;;;5016436;28;20025;-88
2022/06/21 02:35:20;;;;;;;1.77;0.90;;;15.70;85.40;;;;;;5016142;28;20534;-89
2022/06/21 02:37:48;;;;;;;0.77;0.77;;;15.70;86.00;;;;;;5034110;28;20029;-91
2022/06/21 02:40:25;;;;;;;1.13;0.73;;;15.60;86.10;;;;;;5016418;28;20026;-92
2022/06/21 02:42:53;;;;;;;3.70;0.80;;;15.60;86.40;;;;;;5033983;28;20026;-88
2022/06/21 02:45:26;;;;;;;2.00;0.68;;;15.40;86.90;;;;;;5034220;28;20379;-91
2022/06/21 02:47:54;;;;;;;2.53;0.80;;;15.40;87.60;;;;;;5016690;28;20029;-90
2022/06/21 02:50:32;;;;;;;2.85;1.02;;;15.40;87.70;;;;;;5016714;28;20033;-91
2022/06/21 02:53:00;;;;;;;2.38;0.88;;;15.40;87.90;;;;;;5016427;28;20025;-90
2022/06/21 02:55:28;;;;;;;1.70;0.85;;;15.30;88.20;;;;;;5016670;28;20057;-89
2022/06/21 02:58:18;;;;;;;1.58;0.88;;;15.20;88.20;;;;;;5016283;28;20124;-89
2022/06/21 03:00:45;;;;;;;1.15;0.70;;;15.20;88.40;;;;;;5034375;28;20379;-89
2022/06/21 03:03:25;;;;;;;1.92;0.90;;;15.20;88.70;;;;;;5033921;28;20021;-89
2022/06/21 03:05:56;;;;;;;2.65;0.88;;;15.10;88.70;;;;;;5016967;28;20030;-86
2022/06/21 03:08:22;;;;;;;2.28;0.70;;;15.20;88.60;;;;;;5034930;28;20117;-90
2022/06/21 03:10:50;;;;;;;1.95;0.90;;;15.20;88.70;;;;;;5040162;28;20033;-86
2022/06/21 03:13:19;;;;;;;2.08;0.73;;;15.20;88.90;;;;;;5036398;28;20158;-86
2022/06/21 03:15:49;;;;;;;0.77;0.65;;;15.20;89.00;;;;;;5015770;28;20085;-86
2022/06/21 03:18:19;;;;;;;1.10;0.88;;;15.00;89.30;;;;;;5026071;28;20029;-86
2022/06/21 03:20:46;;;;;;;3.17;0.90;;;15.10;89.70;;;;;;5033508;28;20112;-86
2022/06/21 03:23:13;;;;;;;3.58;1.25;;;15.10;89.90;;;;;;5031521;28;20018;-86
2022/06/21 03:25:49;;;;;;;1.33;0.77;;;15.10;89.80;;;;;;5032148;28;20053;-86
2022/06/21 03:28:35;;;;;;;3.22;1.10;;;15.10;90.00;;;;;;5034643;28;20041;-86
2022/06/21 03:31:30;;;;;;;1.00;0.75;;;15.20;90.00;;;;;;5036440;28;20040;-86
2022/06/21 03:34:02;;;;;;;1.50;0.80;;;15.10;89.80;;;;;;5032623;28;20052;-86
2022/06/21 03:36:27;;;;;;;;;;;15.10;90.00;;;;;;5036441;28;20025;-86
2022/06/21 03:39:10;;;;;;;1.70;0.80;;;15.10;90.30;;;;;;5036417;28;19955;-85
2022/06/21 03:41:45;;;;;;;0.88;0.70;;;15.10;90.40;;;;;;5036804;28;20100;-88
2022/06/21 03:44:29;;;;;;;1.75;0.80;;;15.00;90.50;;;;;;5035582;28;20116;-90
2022/06/21 03:47:09;;;;;;;2.20;0.70;;;15.00;90.60;;;;;;5036052;28;20471;-86
2022/06/21 03:49:45;;;;;;;1.23;0.70;;;15.10;90.50;;;;;;5036513;28;20033;-86
2022/06/21 03:52:44;;;;;;;3.28;0.80;;;15.10;90.50;;;;;;5035039;28;20172;-87
2022/06/21 03:55:22;;;;;;;1.92;0.80;;;15.10;90.60;;;;;;4998783;28;20176;-87
2022/06/21 03:57:52;;;;;;;1.70;0.90;;;15.00;90.80;;;;;;5016457;28;20069;-86
2022/06/21 04:00:19;;;;;;;1.63;0.73;;;15.00;91.00;;;;;;5016764;28;20038;-87
2022/06/21 04:02:51;;;;;;;1.55;0.85;;;15.00;90.90;;;;;;5016841;28;20034;-87
2022/06/21 04:05:33;;;;;;;3.03;0.98;;;15.00;91.10;;;;;;4999058;28;20026;-87
2022/06/21 04:08:37;;;;;;;1.92;0.70;;;15.10;91.00;;;;;;5016362;28;20030;-87
2022/06/21 04:11:14;;;;;;;2.45;0.77;;;15.20;91.00;;;;;;4939901;29;20039;-88
2022/06/21 04:14:05;;;;;;;1.17;0.80;;;15.20;91.00;;;;;;4991155;28;20539;-88
2022/06/21 04:16:38;;;;;;;1.45;0.80;;;15.20;90.90;;;;;;5015689;28;20048;-87
2022/06/21 04:19:42;;;;;;;1.13;0.85;;;15.30;91.00;;;;;;5051037;28;20470;-86
2022/06/21 04:22:36;;;;;;;3.08;0.55;;;15.30;91.30;;;;;;5020096;28;20047;-87
2022/06/21 04:25:33;;;;;;;1.38;0.90;;;15.40;90.90;;;;;;5014613;28;20030;-86
2022/06/21 04:28:13;;;;;;;2.60;1.02;;;15.40;90.90;;;;;;5002734;28;20062;-86
2022/06/21 04:30:43;;;;;;;1.77;0.85;;;15.40;90.90;;;;;;5018592;28;20025;-87
2022/06/21 04:33:17;;;;;;;2.22;0.90;;;15.40;91.00;;;;;;5018343;28;20116;-87
2022/06/21 04:35:57;;;;;;;1.27;0.85;;;15.40;90.90;;;;;;5035982;28;20105;-86
2022/06/21 04:38:43;;;;;;;4.32;1.25;;;15.50;90.60;;;;;;5017898;28;20043;-88
2022/06/21 04:41:15;;;;;;;2.03;0.88;;;15.50;90.50;;;;;;5035365;28;20033;-87
2022/06/21 04:43:46;;;;;;;3.60;1.00;;;15.50;90.60;;;;;;5035829;28;20096;-88
2022/06/21 04:46:34;;;;;;;2.53;0.90;;;15.60;90.50;;;;;;5035277;28;20049;-86
2022/06/21 04:49:37;;;;;;;2.50;0.90;;;15.70;90.20;;;;;;5017684;28;20033;-86
2022/06/21 04:52:06;;;;;;;2.45;0.63;;;15.70;90.30;;;;;;5030965;28;20046;-86
2022/06/21 04:54:35;;;;;;;0.90;0.70;;;15.70;90.00;;;;;;5035537;28;20036;-86
2022/06/21 04:57:19;;;;;;;1.75;0.80;;;15.80;90.00;;;;;;5017431;28;20095;-86
2022/06/21 04:59:47;;;;;;;1.65;0.80;;;15.80;90.00;;;;;;5017688;28;20115;-87
2022/06/21 05:02:24;;;;;;;1.52;0.75;;;15.80;89.60;;;;;;5017590;28;20026;-88
2022/06/21 05:04:57;;;;;;;1.98;0.80;;;15.90;89.70;;;;;;5035457;28;20032;-87
2022/06/21 05:07:29;;;;;;;5.18;0.77;;;15.90;90.00;;;;;;5018003;28;20022;-88
2022/06/21 05:09:56;;;;;;;1.38;0.80;;;15.90;89.40;;;;;;5034777;28;20037;-87
2022/06/21 05:12:34;;;;;;;1.00;0.70;;;16.00;89.20;;;;;;5035216;28;20033;-88
2022/06/21 05:15:14;;;;;;;0.90;0.60;;;16.00;88.70;;;;;;5018027;28;20104;-95
2022/06/21 05:17:44;;;;;;;3.05;0.80;;;16.10;88.80;;;;;;5019724;28;20136;-94
2022/06/21 05:20:20;;;;;;;1.40;0.70;;;16.10;88.90;;;;;;5035582;28;20113;-94
2022/06/21 05:22:52;;;;;;;1.95;0.90;;;16.20;88.70;;;;;;5034132;28;20057;-87
2022/06/21 05:25:44;;;;;;;2.50;0.80;;;16.20;88.30;;;;;;5017838;28;20029;-86
2022/06/21 05:28:19;;;;;;;2.25;1.00;;;16.30;87.80;;;;;;5015858;28;20041;-87
2022/06/21 05:30:54;;;;;;;2.35;0.77;;;16.30;87.10;;;;;;5035196;28;20033;-96
2022/06/21 05:33:43;;;;;;;1.48;0.80;;;16.40;87.00;;;;;;5036658;28;20033;-88
2022/06/21 05:36:15;;;;;;;1.63;0.70;;;16.40;86.70;;;;;;5030408;28;20038;-89
2022/06/21 05:38:56;;;;;;;1.92;0.80;;;16.50;86.50;;;;;;5033768;28;20021;-88
2022/06/21 05:41:31;;;;;;;2.15;0.75;;;16.60;85.90;;;;;;5033377;28;20068;-89
2022/06/21 05:44:10;;;;;;;3.67;0.88;;;16.60;85.20;;;;;;5034823;28;20025;-91
2022/06/21 05:46:44;;;;;;;2.60;0.70;;;16.70;85.60;;;;;;5035482;28;20104;-90
2022/06/21 05:49:21;;;;;;;3.78;0.90;;;16.80;84.60;;;;;;5034278;28;20041;-91
2022/06/21 05:51:48;;;;;;;4.95;0.90;;;16.90;84.00;;;;;;5033527;28;20029;-91
2022/06/21 05:54:18;;;;;;;3.63;0.80;;;17.00;83.50;;;;;;5033014;28;20052;-90
2022/06/21 05:56:44;;;;;;;0.88;0.52;;;17.10;83.20;;;;;;5034042;28;20064;-90
2022/06/21 05:59:15;;;;;;;1.17;0.70;;;17.20;82.80;;;;;;5016612;28;20164;-90
2022/06/21 06:01:44;;;;;;;3.38;1.00;;;17.20;82.60;;;;;;5033216;28;20437;-89
2022/06/21 06:04:44;;;;;;;2.70;1.00;;;17.30;82.00;;;;;;5016514;28;20466;-92
2022/06/21 06:07:22;;;;;;;1.95;1.02;;;17.40;82.00;;;;;;5008877;28;20032;-91
2022/06/21 06:09:50;;;;;;;2.95;0.90;;;17.50;82.10;;;;;;5036151;28;20037;-92
2022/06/21 06:12:23;;;;;;;3.45;1.05;;;17.50;81.20;;;;;;5040137;28;20056;-95
2022/06/21 06:14:57;;;;;;;5.38;0.90;;;17.60;80.90;;;;;;5048480;28;20088;-87
2022/06/21 06:17:42;;;;;;;3.08;0.90;;;17.60;80.90;;;;;;5065885;28;20077;-88
2022/06/21 06:20:37;;;;;;;1.52;0.80;;;17.70;81.00;;;;;;5057561;28;20075;-88
2022/06/21 06:23:10;;;;;;;2.10;0.70;;;17.80;80.90;;;;;;5019457;28;20029;-92
2022/06/21 06:25:39;;;;;;;1.58;0.90;;;17.70;79.60;;;;;;5031753;28;20085;-87
2022/06/21 06:28:26;;;;;;;2.03;0.80;;;17.80;80.40;;;;;;5031353;28;20040;-88
2022/06/21 06:30:58;;;;;;;2.22;0.90;;;17.80;80.00;;;;;;5050534;28;20051;-87
2022/06/21 06:33:26;;;;;;;;;;;17.90;79.80;;;;;;5031733;28;20027;-86
2022/06/21 06:35:55;;;;;;;4.50;0.77;;;17.90;79.30;;;;;;5033173;28;19905;-86
2022/06/21 06:38:20;;;;;;;1.42;0.80;;;18.00;79.40;;;;;;5034276;28;20482;-87
2022/06/21 06:41:01;;;;;;;1.98;0.80;;;18.10;79.00;;;;;;5016381;28;20029;-90
2022/06/21 06:43:55;;;;;;;2.95;0.68;;;18.10;79.10;;;;;;5016787;28;20027;-96
2022/06/21 06:46:30;;;;;;;3.92;1.10;;;18.30;78.70;;;;;;5016779;28;20033;-85
2022/06/21 06:49:07;;;;;;;2.03;0.90;;;18.50;78.50;;;;;;5015640;28;20032;-90
2022/06/21 06:51:47;;;;;;;1.98;0.90;;;18.70;76.80;;;;;;5016514;28;20025;-93
2022/06/21 06:54:36;;;;;;;2.28;0.80;;;18.80;76.50;;;;;;5006953;28;20040;-92
2022/06/21 06:57:31;;;;;;;3.97;0.80;;;18.90;76.20;;;;;;5013330;28;20124;-83
2022/06/21 06:59:58;;;;;;;3.42;0.68;;;18.90;76.80;;;;;;5008839;28;20569;-96
2022/06/21 07:08:49;;;;;;;1.75;0.85;;;19.00;75.50;;;;;;2908640;22;20303;-80
2022/06/21 07:11:37;;;;;;;1.85;0.77;;;19.00;75.70;;;;;;5006254;28;20703;-79
2022/06/21 07:14:03;;;;;;;1.25;0.90;;;19.00;77.20;;;;;;4997308;28;20030;-78
2022/06/21 07:16:30;;;;;;;1.90;0.90;;;19.10;77.50;;;;;;5010569;28;20034;-79
2022/06/21 07:19:00;;;;;;;5.57;0.95;;;19.20;77.00;;;;;;5009664;28;20030;-79
2022/06/21 07:21:26;;;;;;;1.45;0.88;;;19.20;76.90;;;;;;4999110;28;20026;-80
2022/06/21 07:23:53;;;;;;;5.80;0.77;;;19.30;76.90;;;;;;5014333;28;20030;-81
2022/06/21 07:26:37;;;;;;;3.95;0.90;;;19.30;76.20;;;;;;5017113;28;20030;-79
2022/06/21 07:29:23;;;;;;;3.55;0.90;;;19.30;76.00;;;;;;4999085;28;20470;-80
2022/06/21 07:31:55;;;;;;;3.35;1.33;;;19.30;76.40;;;;;;4998158;28;20514;-78
2022/06/21 07:34:35;;;;;;;1.95;0.90;;;19.30;76.80;;;;;;4996227;28;20467;-78
2022/06/21 07:37:11;;;;;;;2.95;1.00;;;19.30;76.80;;;;;;4979640;28;20026;-80
2022/06/21 07:39:49;;;;;;;1.73;1.02;;;19.30;76.80;;;;;;4997198;28;20474;-80
2022/06/21 07:42:19;;;;;;;4.75;1.10;;;19.30;77.10;;;;;;5016808;28;20456;-81
2022/06/21 07:44:50;;;;;;;1.95;0.75;;;19.20;77.30;;;;;;5016312;28;20048;-82
2022/06/21 07:47:23;;;;;;;6.43;1.30;;;19.20;77.20;;;;;;5007139;28;20026;-80
2022/06/21 07:49:59;;;;;;;4.53;1.02;;;19.20;77.30;;;;;;5016071;28;20041;-80
2022/06/21 07:52:32;;;;;;;3.78;1.52;;;19.20;77.20;;;;;;5015374;28;20045;-80
2022/06/21 07:55:16;;;;;;;4.85;1.40;;;19.20;77.40;;;;;;5016119;28;20057;-80
2022/06/21 07:57:47;;;;;;;3.03;1.00;;;19.30;77.00;;;;;;5025218;28;20026;-81
2022/06/21 08:00:16;;;;;;;4.13;1.55;;;19.30;76.30;;;;;;5034845;28;20038;-79
2022/06/21 08:08:52;;;;;;;2.28;1.10;;;19.80;76.70;;;;;;5036089;28;20032;-83
2022/06/21 08:11:23;;;;;;;2.00;1.10;;;20.10;75.30;;;;;;5030333;28;20041;-83
2022/06/21 08:13:49;;;;;;;2.53;0.88;;;20.30;74.40;;;;;;5029876;28;20363;-84
2022/06/21 08:16:18;;;;;;;1.67;0.88;;;20.50;73.80;;;;;;5016267;28;20094;-83
2022/06/21 08:18:47;;;;;;;6.00;1.00;;;20.70;73.60;;;;;;4998578;28;20026;-83
2022/06/21 08:21:18;;;;;;;2.22;1.00;;;20.80;73.80;;;;;;5015137;28;20022;-84
2022/06/21 08:23:57;;;;;;;;;;;21.00;74.10;;;;;;5015200;28;20026;-82
2022/06/21 08:26:26;;;;;;;2.33;1.00;;;21.00;72.40;;;;;;5024546;28;19909;-82
2022/06/21 08:29:08;;;;;;;3.28;1.10;;;21.10;72.80;;;;;;5015173;28;20049;-90
2022/06/21 08:31:41;;;;;;;4.05;1.13;;;21.20;72.40;;;;;;4994065;28;20450;-83
2022/06/21 08:34:11;;;;;;;4.00;1.30;;;21.20;73.20;;;;;;5008487;28;20022;-79
2022/06/21 08:36:54;;;;;;;4.55;1.40;;;21.30;73.30;;;;;;5014956;28;20025;-80
2022/06/21 08:39:33;;;;;;;2.58;1.20;;;21.30;73.40;;;;;;5025780;28;20116;-82
2022/06/21 08:42:02;;;;;;;2.05;0.98;;;21.40;73.30;;;;;;5034160;28;20371;-86
2022/06/21 08:48:10;;;;;;;2.05;1.20;;;21.50;73.10;;;;;;5015066;28;20394;-80
2022/06/21 08:50:54;;;;;;;1.98;1.08;;;21.60;72.70;;;;;;5015158;28;20542;-79
2022/06/21 08:53:32;;;;;;;3.28;1.58;;;21.70;73.40;;;;;;5010634;28;20066;-79
2022/06/21 08:56:09;;;;;;;3.28;1.10;;;21.70;73.30;;;;;;5015698;28;20116;-79
2022/06/21 08:59:03;;;;;;;2.17;1.30;;;21.80;73.80;;;;;;5022349;28;20029;-79
2022/06/21 09:02:09;;;;;;;4.88;1.30;;;21.80;73.20;;;;;;5030587;28;20026;-79
2022/06/21 09:04:37;;;;;;;2.95;1.30;;;21.90;73.60;;;;;;4987338;28;20091;-79
2022/06/21 09:07:24;;;;;;;4.78;1.40;;;22.10;73.80;;;;;;5033309;28;20029;-79
2022/06/21 09:10:10;;;;;;;3.45;1.33;;;22.30;73.40;;;;;;5030960;28;20045;-80
2022/06/21 09:13:13;;;;;;;2.97;1.38;;;22.40;72.40;;;;;;5009336;28;20034;-78
2022/06/21 09:16:17;;;;;;;6.07;1.40;;;22.50;71.40;;;;;;5002019;28;20030;-80
2022/06/21 09:18:48;;;;;;;2.97;1.23;;;22.50;71.60;;;;;;4997823;28;20433;-84
2022/06/21 09:21:51;;;;;;;4.95;1.25;;;22.40;71.00;;;;;;5019738;28;20034;-90
2022/06/21 09:24:16;;;;;;;4.00;1.73;;;22.30;70.80;;;;;;5024575;28;20030;-88
2022/06/21 09:26:55;;;;;;;4.20;1.40;;;22.20;71.50;;;;;;5014947;28;20033;-88
2022/06/21 09:29:33;;;;;;;3.40;1.30;;;22.30;71.80;;;;;;5006316;28;20092;-88
2022/06/21 09:32:33;;;;;;;;;;;;;;;;;;;;;
2022/06/21 09:35:30;;;;;;;;;;;;;;;;;;;;;
2022/06/21 09:39:03;;;;;;;;;;;;;;;;;;;;;
2022/06/21 09:41:41;;;;;;;;;;;22.40;71.40;;;;;;4943045;29;20039;-96
2022/06/21 09:44:39;;;;;;;7.78;1.75;;;22.50;71.20;;;;;;4973869;28;19996;-93
2022/06/21 09:47:23;;;;;;;1.77;1.30;;;22.50;70.60;;;;;;4957429;28;20041;-92
2022/06/21 09:50:16;;;;;;;2.30;1.30;;;22.60;70.60;;;;;;4973443;28;20082;-86
2022/06/21 09:53:01;;;;;;;3.03;1.50;;;22.70;70.10;;;;;;4973315;28;20042;-84
2022/06/21 09:55:55;;;;;;;7.57;1.55;;;22.80;70.40;;;;;;4957253;28;20117;-84
2022/06/21 09:58:39;;;;;;;6.15;1.13;;;22.80;70.30;;;;;;4973547;28;20093;-84
2022/06/21 10:01:14;;;;;;;6.70;1.40;;;22.80;69.80;;;;;;4965631;28;20041;-85
2022/06/21 10:03:55;;;;;;;2.28;1.08;;;22.90;69.60;;;;;;4973610;28;20123;-85
2022/06/21 10:06:28;;;;;;;3.08;1.00;;;22.90;69.10;;;;;;4967857;28;20041;-83
2022/06/21 10:09:09;;;;;;;3.20;1.20;;;23.00;69.60;;;;;;4974424;28;20070;-84
2022/06/21 10:12:11;;;;;;;2.80;1.10;;;23.10;68.60;;;;;;4993816;28;20053;-83
2022/06/21 10:14:56;;;;;;;4.60;1.10;;;23.20;68.90;;;;;;5013234;28;20069;-83
2022/06/21 10:17:59;;;;;;;5.00;1.70;;;23.20;68.40;;;;;;5021215;28;20037;-84
2022/06/21 10:20:30;;;;;;;4.55;0.98;;;23.30;68.70;;;;;;5016183;28;20025;-83
2022/06/21 10:23:04;;;;;;;;;;;23.30;68.90;;;;;;5033273;28;20152;-89
2022/06/21 10:25:45;;;;;;;2.95;1.30;;;23.40;69.00;;;;;;5029759;28;20368;-81
2022/06/21 10:28:40;;;;;;;3.57;1.20;;;23.50;69.00;;;;;;5026668;28;20481;-85
2022/06/21 10:31:19;;;;;;;6.65;1.40;;;23.60;68.40;;;;;;5032168;28;20038;-83
2022/06/21 10:34:01;;;;;;;2.10;1.40;;;23.70;68.40;;;;;;5016256;28;20120;-82
2022/06/21 10:36:51;;;;;;;3.25;1.40;;;23.60;67.10;;;;;;5000046;28;20041;-92
2022/06/21 10:39:39;;;;;;;1.77;1.25;;;23.60;67.10;;;;;;5003094;28;20041;-90
2022/06/21 10:42:48;;;;;;;3.05;1.27;;;23.70;67.80;;;;;;5002651;28;20092;-89
2022/06/21 10:45:49;;;;;;;2.85;1.25;;;23.80;67.30;;;;;;5006122;28;20103;-83
2022/06/21 10:48:44;;;;;;;3.17;1.38;;;23.90;67.40;;;;;;5010634;28;20469;-82
2022/06/21 10:51:40;;;;;;;3.97;1.25;;;24.00;67.80;;;;;;5014237;28;20041;-85
2022/06/21 10:54:34;;;;;;;4.63;1.30;;;24.00;66.80;;;;;;5031414;28;20022;-85
2022/06/21 10:57:34;;;;;;;3.45;1.60;;;24.00;67.50;;;;;;5039714;28;20027;-83
2022/06/21 11:03:02;;;;;;;4.20;1.52;;;24.10;66.90;;;;;;5019847;28;20192;-80
2022/06/21 11:06:09;;;;;;;4.85;1.50;;;24.20;68.10;;;;;;5019171;28;20050;-81
2022/06/21 11:08:46;;;;;;;4.75;1.80;;;24.40;67.60;;;;;;5026981;28;20026;-81
2022/06/21 11:11:51;;;;;;;2.92;1.70;;;24.50;67.30;;;;;;5027884;28;20168;-81
2022/06/21 11:14:29;;;;;;;2.25;1.50;;;24.60;66.40;;;;;;4979163;28;20050;-84
2022/06/21 11:17:03;;;;;;;11.82;1.90;;;24.70;66.70;;;;;;4994045;28;20034;-82
2022/06/21 11:19:29;;;;;;;4.60;1.58;;;24.80;67.10;;;;;;4978965;28;20043;-83
2022/06/21 11:22:24;;;;;;;4.88;1.55;;;24.80;66.10;;;;;;4978591;28;20035;-83
2022/06/21 11:25:12;;;;;;;4.03;1.63;;;24.70;66.20;;;;;;4978808;28;20039;-86
2022/06/21 11:27:58;;;;;;;6.40;1.75;;;24.80;67.20;;;;;;4979219;28;20026;-83
2022/06/21 11:31:01;;;;;;;3.38;1.35;;;25.00;66.80;;;;;;4977416;28;20034;-80
2022/06/21 11:33:51;;;;;;;4.60;2.05;;;25.10;66.60;;;;;;4977748;28;20050;-75
2022/06/21 11:36:28;;;;;;;4.53;1.95;;;25.20;66.90;;;;;;4984270;28;20100;-88
2022/06/21 11:39:11;;;;;;;4.68;1.85;;;25.20;67.00;;;;;;4958310;28;20043;-87
2022/06/21 11:42:04;;;;;;;4.88;1.55;;;25.40;67.10;;;;;;4963904;28;20077;-86
2022/06/21 11:44:55;;;;;;;4.22;1.58;;;25.60;66.60;;;;;;4993020;28;20041;-86
2022/06/21 11:47:43;;;;;;;6.03;1.80;;;25.70;66.00;;;;;;5031903;28;20026;-86
2022/06/21 11:50:20;;;;;;;3.60;1.58;;;25.70;66.10;;;;;;5023588;28;20041;-82
2022/06/21 11:52:46;;;;;;;5.90;2.10;;;25.70;66.90;;;;;;5035377;28;20029;-82
2022/06/21 11:55:45;;;;;;;4.55;2.10;;;25.70;66.60;;;;;;5024267;28;20068;-79
2022/06/21 11:58:32;;;;;;;4.93;2.78;;;25.90;65.70;;;;;;5031035;28;20497;-78
2022/06/21 12:01:19;;;;;;;3.35;1.85;;;26.00;67.30;;;;;;5034225;28;20053;-83
2022/06/21 12:04:01;;;;;;;3.45;1.92;;;26.00;65.30;;;;;;5016867;28;20040;-84
2022/06/21 12:06:39;;;;;;;2.92;1.60;;;26.00;66.40;;;;;;5010443;28;20056;-84
2022/06/21 12:09:17;;;;;;;3.85;1.80;;;26.00;65.00;;;;;;5010213;28;20521;-81
2022/06/21 12:12:10;;;;;;;4.28;1.73;;;26.10;65.20;;;;;;5014259;28;20026;-80
2022/06/21 12:14:50;;;;;;;4.20;1.88;;;26.30;65.20;;;;;;4993196;28;20023;-79
2022/06/21 12:17:22;;;;;;;3.87;1.70;;;26.40;65.60;;;;;;4994818;28;20037;-77
2022/06/21 12:19:57;;;;;;;79.00;47.25;;;26.60;63.90;;;;;;5009926;28;20036;-77
2022/06/21 12:22:25;;;;;;;29.88;18.52;;;26.70;63.00;;;;;;5001885;28;20057;-76
2022/06/21 12:24:51;;;;;;;7.05;4.57;;;26.80;63.20;;;;;;5008335;28;20390;-80
2022/06/21 12:27:17;;;;;;;4.43;2.53;;;27.00;63.50;;;;;;5014330;28;20029;-79
2022/06/21 12:29:43;;;;;;;4.03;2.10;;;27.10;62.70;;;;;;5014299;28;20022;-79
2022/06/21 12:32:20;;;;;;;4.65;1.98;;;27.40;63.00;;;;;;5013723;28;20030;-80
2022/06/21 12:35:04;;;;;;;5.05;1.92;;;27.40;62.40;;;;;;4998380;28;20026;-81
2022/06/21 12:37:43;;;;;;;2.00;1.70;;;27.50;62.10;;;;;;4978780;28;20093;-81
2022/06/21 12:40:23;;;;;;;3.83;1.98;;;27.50;62.30;;;;;;5004055;28;20132;-81
2022/06/21 12:43:22;;;;;;;3.15;1.73;;;27.60;62.60;;;;;;5012868;28;20041;-78
2022/06/21 12:46:27;;;;;;;4.60;1.70;;;27.70;61.70;;;;;;4997532;28;20075;-78
2022/06/21 12:49:21;;;;;;;4.82;1.63;;;27.80;60.90;;;;;;4984213;28;20041;-82
2022/06/21 12:51:53;;;;;;;3.28;1.67;;;27.80;62.00;;;;;;4997775;28;20038;-80
2022/06/21 12:54:34;;;;;;;3.88;1.58;;;27.80;62.30;;;;;;5013698;28;20045;-81
2022/06/21 12:57:01;;;;;;;;;;;27.90;61.90;;;;;;5013517;28;20359;-81
2022/06/21 12:59:51;;;;;;;5.57;2.15;;;27.80;60.80;;;;;;5014394;28;19906;-78
2022/06/21 13:02:45;;;;;;;2.33;1.70;;;27.90;61.30;;;;;;5014491;28;20034;-79
2022/06/21 13:05:22;;;;;;;4.03;2.15;;;28.00;62.10;;;;;;5014048;28;20236;-79
2022/06/21 13:08:27;;;;;;;7.63;2.05;;;28.20;61.20;;;;;;4997212;28;20028;-79
2022/06/21 13:11:47;;;;;;;4.75;1.83;;;28.40;61.70;;;;;;4976290;28;20042;-82
2022/06/21 13:14:33;;;;;;;3.63;1.77;;;28.80;61.10;;;;;;4976872;28;20042;-79
2022/06/21 13:17:24;;;;;;;4.55;1.88;;;29.10;59.90;;;;;;5010452;28;20030;-78
2022/06/21 13:19:52;;;;;;;4.43;1.85;;;29.50;58.70;;;;;;5009544;28;20050;-78
2022/06/21 13:22:33;;;;;;;2.70;1.95;;;29.60;58.50;;;;;;4994317;28;20030;-78
2022/06/21 13:25:05;;;;;;;6.15;2.03;;;29.40;57.70;;;;;;4995962;28;20037;-77
2022/06/21 13:27:59;;;;;;;3.10;1.80;;;29.40;57.90;;;;;;4996430;28;20445;-77
2022/06/21 13:30:51;;;;;;;2.33;1.70;;;29.60;58.10;;;;;;4992972;28;20048;-76
2022/06/21 13:33:24;;;;;;;2.90;2.03;;;30.00;57.00;;;;;;5009524;28;20030;-78
2022/06/21 13:36:02;;;;;;;3.17;2.00;;;30.20;57.70;;;;;;5009629;28;20018;-77
2022/06/21 13:38:49;;;;;;;2.42;1.63;;;30.60;56.80;;;;;;4991971;28;20387;-77
2022/06/21 13:44:25;;;;;;;2.88;1.73;;;31.60;55.40;;;;;;5013138;28;20044;-78
2022/06/21 13:47:07;;;;;;;4.88;2.15;;;32.20;53.70;;;;;;5001242;28;20038;-78
2022/06/21 13:49:46;;;;;;;2.38;1.90;;;32.50;52.60;;;;;;5008688;28;20387;-77
2022/06/21 13:52:26;;;;;;;4.88;2.03;;;32.90;51.90;;;;;;5005170;28;20030;-78
2022/06/21 13:55:24;;;;;;;3.20;1.65;;;33.30;51.60;;;;;;5012469;28;20026;-78
2022/06/21 13:58:13;;;;;;;4.38;1.70;;;33.30;51.30;;;;;;4943215;28;20034;-77
2022/06/21 14:01:12;;;;;;;4.40;1.90;;;33.10;51.30;;;;;;5012566;28;20091;-79
2022/06/21 14:04:15;;;;;;;2.50;1.45;;;32.80;52.00;;;;;;5012405;28;20056;-77
2022/06/21 14:07:05;;;;;;;2.58;1.45;;;32.80;52.00;;;;;;5013210;28;20054;-78
2022/06/21 14:09:59;;;;;;;2.00;1.60;;;33.10;51.50;;;;;;5026289;28;20049;-76
2022/06/21 14:12:32;;;;;;;5.65;2.00;;;33.40;50.90;;;;;;5052083;28;20051;-76
2022/06/21 14:15:21;;;;;;;5.65;2.25;;;33.60;50.20;;;;;;5035186;28;20022;-79